createdAt,value
2023-03-26T00:02:11.261Z,4.75
2023-03-26T00:04:37.771Z,4.10
2023-03-26T00:07:04.225Z,3.33
2023-03-26T00:09:30.740Z,4.05
2023-03-26T00:11:57.207Z,3.55
2023-03-26T00:14:23.681Z,3.17
2023-03-26T00:16:50.214Z,4.07
2023-03-26T00:19:16.688Z,3.92
2023-03-26T00:21:43.148Z,3.00
2023-03-26T00:24:12.278Z,2.95
2023-03-26T00:26:38.750Z,3.88
2023-03-26T00:29:05.552Z,3.47
2023-03-26T00:31:33.006Z,3.72
2023-03-26T00:33:59.505Z,3.50
2023-03-26T00:36:26.193Z,3.13
2023-03-26T00:38:53.258Z,4.07
2023-03-26T00:41:21.126Z,2.95
2023-03-26T00:43:47.620Z,2.70
2023-03-26T00:46:14.878Z,3.20
2023-03-26T00:48:45.615Z,3.92
2023-03-26T00:51:14.644Z,2.97
2023-03-26T00:53:41.764Z,3.83
2023-03-26T00:56:09.350Z,3.22
2023-03-26T00:58:35.907Z,3.22
2023-03-26T01:01:06.239Z,2.75
2023-03-26T01:03:35.427Z,5.00
2023-03-26T01:06:04.050Z,3.45
2023-03-26T01:08:44.867Z,4.07
2023-03-26T01:11:23.316Z,4.05
2023-03-26T01:13:53.989Z,4.30
2023-03-26T01:16:49.350Z,3.27
2023-03-26T01:19:37.510Z,3.20
2023-03-26T01:22:06.354Z,3.08
2023-03-26T01:24:32.779Z,3.65
2023-03-26T01:27:22.554Z,3.17
2023-03-26T01:30:03.286Z,3.50
2023-03-26T01:32:52.913Z,2.73
2023-03-26T01:35:57.876Z,3.00
2023-03-26T01:38:42.943Z,3.58
2023-03-26T01:41:15.310Z,3.28
2023-03-26T01:43:49.928Z,3.60
2023-03-26T01:46:18.735Z,3.08
2023-03-26T01:48:47.173Z,3.45
2023-03-26T01:51:14.949Z,2.80
2023-03-26T01:53:45.944Z,3.28
2023-03-26T01:56:27.106Z,4.40
2023-03-26T01:59:12.517Z,3.40
2023-03-26T02:01:50.614Z,3.40
2023-03-26T02:04:23.237Z,3.28
2023-03-26T02:07:08.076Z,3.47
2023-03-26T02:09:43.330Z,3.72
2023-03-26T02:12:10.425Z,3.35
2023-03-26T02:14:36.916Z,3.67
2023-03-26T02:17:03.619Z,3.50
2023-03-26T02:19:30.162Z,4.03
2023-03-26T02:21:56.665Z,4.18
2023-03-26T02:24:23.220Z,4.35
2023-03-26T02:26:54.264Z,3.75
2023-03-26T02:29:20.819Z,2.78
2023-03-26T02:31:48.851Z,2.83
2023-03-26T02:34:16.494Z,2.88
2023-03-26T02:36:49.976Z,3.05
2023-03-26T02:39:16.642Z,3.15
2023-03-26T02:41:50.758Z,3.88
2023-03-26T02:44:17.314Z,3.15
2023-03-26T02:47:06.633Z,3.20
2023-03-26T02:49:51.653Z,4.25
2023-03-26T02:52:27.664Z,3.03
2023-03-26T02:54:57.479Z,4.03
2023-03-26T02:57:25.126Z,2.70
2023-03-26T03:00:00.712Z,3.33
2023-03-26T03:02:36.261Z,3.20
2023-03-26T03:05:20.523Z,3.58
2023-03-26T03:07:53.558Z,3.58
2023-03-26T03:10:20.054Z,2.97
2023-03-26T03:13:06.296Z,3.28
2023-03-26T03:15:33.102Z,2.78
2023-03-26T03:17:59.567Z,3.42
2023-03-26T03:20:28.886Z,3.20
2023-03-26T03:22:55.460Z,3.25
2023-03-26T03:25:22.418Z,3.10
2023-03-26T03:27:50.013Z,3.08
2023-03-26T03:30:16.786Z,3.38
2023-03-26T03:32:46.199Z,3.97
2023-03-26T03:35:16.007Z,3.45
2023-03-26T03:37:47.091Z,3.35
2023-03-26T03:40:13.885Z,2.97
2023-03-26T03:42:40.984Z,3.53
2023-03-26T03:45:09.620Z,3.58
2023-03-26T03:47:50.477Z,3.65
2023-03-26T03:50:23.341Z,3.50
2023-03-26T03:53:05.346Z,3.50
2023-03-26T03:55:32.360Z,3.67
2023-03-26T03:57:58.919Z,3.60
2023-03-26T04:00:26.186Z,4.03
2023-03-26T04:03:12.700Z,3.42
2023-03-26T04:05:39.375Z,3.25
2023-03-26T04:08:06.677Z,3.08
2023-03-26T04:10:54.254Z,3.92
2023-03-26T04:13:44.443Z,3.58
2023-03-26T04:16:22.647Z,3.15
2023-03-26T04:18:49.184Z,3.00
2023-03-26T04:21:15.625Z,3.47
2023-03-26T04:23:42.691Z,4.90
2023-03-26T04:26:29.397Z,4.15
2023-03-26T04:29:07.984Z,3.38
2023-03-26T04:31:35.403Z,3.58
2023-03-26T04:34:08.320Z,3.70
2023-03-26T04:36:43.073Z,3.23
2023-03-26T04:39:12.787Z,3.97
2023-03-26T04:41:59.652Z,4.78
2023-03-26T04:44:32.683Z,3.55
2023-03-26T04:47:03.785Z,3.97
2023-03-26T04:49:36.028Z,3.83
2023-03-26T04:52:02.765Z,5.20
2023-03-26T04:54:56.390Z,3.53
2023-03-26T04:57:39.158Z,3.72
2023-03-26T05:00:13.455Z,4.50
2023-03-26T05:02:40.170Z,5.20
2023-03-26T05:05:07.643Z,3.90
2023-03-26T05:07:36.253Z,5.10
2023-03-26T05:10:03.875Z,3.92
2023-03-26T05:12:53.215Z,3.92
2023-03-26T05:15:35.410Z,3.92
2023-03-26T05:18:07.757Z,4.25
2023-03-26T05:20:38.820Z,2.83
2023-03-26T05:23:07.560Z,5.60
2023-03-26T05:25:37.157Z,5.80
2023-03-26T05:28:10.586Z,4.50
2023-03-26T05:30:53.025Z,5.38
2023-03-26T05:33:21.715Z,4.60
2023-03-26T05:36:06.893Z,3.92
2023-03-26T05:38:33.804Z,6.38
2023-03-26T05:41:05.770Z,5.20
2023-03-26T05:43:34.858Z,4.05
2023-03-26T05:46:20.493Z,5.50
2023-03-26T05:48:47.232Z,4.72
2023-03-26T05:51:14.294Z,4.30
2023-03-26T05:53:47.964Z,4.90
2023-03-26T05:56:52.721Z,4.60
2023-03-26T05:59:38.139Z,4.97
2023-03-26T06:02:24.998Z,5.75
2023-03-26T06:08:08.775Z,5.93
2023-03-26T06:10:39.040Z,6.15
2023-03-26T06:13:05.883Z,6.72
2023-03-26T06:15:35.475Z,6.13
2023-03-26T06:18:14.089Z,5.90
2023-03-26T06:20:58.634Z,6.00
2023-03-26T06:23:36.697Z,6.18
2023-03-26T06:26:06.080Z,6.10
2023-03-26T06:28:47.939Z,6.07
2023-03-26T06:31:37.318Z,6.10
2023-03-26T06:34:17.049Z,6.15
2023-03-26T06:36:43.682Z,6.85
2023-03-26T06:39:10.225Z,6.93
2023-03-26T06:41:43.684Z,6.20
2023-03-26T06:44:28.545Z,5.80
2023-03-26T06:47:13.461Z,5.47
2023-03-26T06:49:58.435Z,4.75
2023-03-26T06:52:53.925Z,5.03
2023-03-26T06:55:34.488Z,5.68
2023-03-26T06:58:10.847Z,4.97
2023-03-26T07:00:53.858Z,6.53
2023-03-26T07:03:39.828Z,5.35
2023-03-26T07:06:24.973Z,6.13
2023-03-26T07:09:17.425Z,5.38
2023-03-26T07:12:22.212Z,5.22
2023-03-26T07:15:07.562Z,5.25
2023-03-26T07:18:03.126Z,6.32
2023-03-26T07:20:33.304Z,6.57
2023-03-26T07:23:00.116Z,5.50
2023-03-26T07:25:36.698Z,6.15
2023-03-26T07:28:21.126Z,5.95
2023-03-26T07:31:41.628Z,7.70
2023-03-26T07:34:44.550Z,6.45
2023-03-26T07:37:30.510Z,7.38
2023-03-26T07:40:35.592Z,8.20
2023-03-26T07:44:11.202Z,9.07
2023-03-26T07:47:29.862Z,11.18
2023-03-26T07:50:21.213Z,13.43
2023-03-26T07:53:14.606Z,13.88
2023-03-26T07:56:33.632Z,12.18
2023-03-26T07:59:34.284Z,13.65
2023-03-26T08:02:35.229Z,14.55
2023-03-26T08:05:30.306Z,12.45
2023-03-26T08:08:53.723Z,12.95
2023-03-26T08:12:02.152Z,12.77
2023-03-26T08:14:42.649Z,14.43
2023-03-26T08:17:44.664Z,13.85
2023-03-26T08:22:55.597Z,14.60
2023-03-26T08:25:35.166Z,15.60
2023-03-26T08:28:31.341Z,13.68
2023-03-26T08:30:58.254Z,14.15
2023-03-26T08:33:26.834Z,15.40
2023-03-26T08:35:53.355Z,14.20
2023-03-26T08:38:20.581Z,20.08
2023-03-26T08:41:11.887Z,18.73
2023-03-26T08:44:13.532Z,10.77
2023-03-26T08:47:09.074Z,14.50
2023-03-26T08:50:03.333Z,12.43
2023-03-26T08:53:18.950Z,12.70
2023-03-26T08:56:11.409Z,11.18
2023-03-26T08:58:51.019Z,10.05
2023-03-26T09:01:35.537Z,10.90
2023-03-26T09:04:23.730Z,8.68
2023-03-26T09:07:24.497Z,7.50
2023-03-26T09:10:16.371Z,5.40
2023-03-26T09:13:01.153Z,5.38
2023-03-26T09:15:33.404Z,5.63
2023-03-26T09:18:26.304Z,5.78
2023-03-26T09:21:10.869Z,3.92
2023-03-26T09:24:14.623Z,4.00
2023-03-26T09:26:59.297Z,5.22
2023-03-26T09:29:42.506Z,3.95
2023-03-26T09:32:33.281Z,4.68
2023-03-26T09:35:21.620Z,4.32
2023-03-26T09:37:58.872Z,4.45
2023-03-26T09:40:42.969Z,3.97
2023-03-26T09:46:18.722Z,3.85
2023-03-26T09:48:48.133Z,3.22
2023-03-26T09:51:17.581Z,3.85
2023-03-26T09:54:02.149Z,3.60
2023-03-26T09:56:34.383Z,3.88
2023-03-26T09:59:29.949Z,3.17
2023-03-26T10:02:14.666Z,3.78
2023-03-26T10:04:58.599Z,3.50
2023-03-26T10:07:49.038Z,4.28
2023-03-26T10:10:34.507Z,3.00
2023-03-26T10:13:27.422Z,3.65
2023-03-26T10:16:15.743Z,4.45
2023-03-26T10:19:19.852Z,3.40
2023-03-26T10:21:57.751Z,3.33
2023-03-26T10:25:04.663Z,5.05
2023-03-26T10:27:34.231Z,3.25
2023-03-26T10:30:09.671Z,3.60
2023-03-26T10:32:50.615Z,3.05
2023-03-26T10:35:33.633Z,2.35
2023-03-26T10:38:18.296Z,3.50
2023-03-26T10:41:15.339Z,4.47
2023-03-26T10:44:14.093Z,3.65
2023-03-26T10:46:59.924Z,3.75
2023-03-26T10:49:50.867Z,3.58
2023-03-26T10:52:36.573Z,3.83
2023-03-26T10:55:20.832Z,3.15
2023-03-26T10:57:55.835Z,4.07
2023-03-26T11:00:25.801Z,3.92
2023-03-26T11:03:17.137Z,4.10
2023-03-26T11:05:52.869Z,3.47
2023-03-26T11:08:31.513Z,3.33
2023-03-26T11:11:06.484Z,3.95
2023-03-26T11:14:00.771Z,4.15
2023-03-26T11:16:57.085Z,5.45
2023-03-26T11:19:33.070Z,10.68
2023-03-26T11:22:56.756Z,14.52
2023-03-26T11:25:50.926Z,4.43
2023-03-26T11:29:03.597Z,4.22
2023-03-26T11:31:54.057Z,11.05
2023-03-26T11:34:27.797Z,5.40
2023-03-26T11:36:58.499Z,3.40
2023-03-26T11:39:33.896Z,3.83
2023-03-26T11:42:08.877Z,3.80
2023-03-26T11:44:59.004Z,3.67
2023-03-26T11:47:47.965Z,3.45
2023-03-26T11:50:18.598Z,3.65
2023-03-26T11:52:46.918Z,3.28
2023-03-26T11:55:13.654Z,4.75
2023-03-26T11:57:44.991Z,3.88
2023-03-26T12:00:17.255Z,2.88
2023-03-26T12:02:46.262Z,2.67
2023-03-26T12:05:17.625Z,2.58
2023-03-26T12:07:52.831Z,2.78
2023-03-26T12:10:28.685Z,3.03
2023-03-26T12:12:59.811Z,2.92
2023-03-26T12:15:27.827Z,2.90
2023-03-26T12:17:57.319Z,3.05
2023-03-26T12:20:24.013Z,2.50
2023-03-26T12:22:58.342Z,2.20
2023-03-26T12:25:34.064Z,1.95
2023-03-26T12:28:17.526Z,2.88
2023-03-26T12:31:04.155Z,3.10
2023-03-26T12:33:32.972Z,2.47
2023-03-26T12:36:15.582Z,2.15
2023-03-26T12:38:42.537Z,1.80
2023-03-26T12:44:43.356Z,1.95
2023-03-26T12:44:50.126Z,2.70
2023-03-26T12:47:57.448Z,1.60
2023-03-26T12:50:15.362Z,3.95
2023-03-26T12:53:16.818Z,2.77
2023-03-26T12:55:52.437Z,1.65
2023-03-26T12:58:52.681Z,1.60
2023-03-26T13:01:35.933Z,1.50
2023-03-26T13:04:14.383Z,2.53
2023-03-26T13:07:00.201Z,2.13
2023-03-26T13:09:47.355Z,1.60
2023-03-26T13:12:25.736Z,2.03
2023-03-26T13:15:05.183Z,2.80
2023-03-26T13:17:42.583Z,2.28
2023-03-26T13:20:45.005Z,2.17
2023-03-26T13:23:33.340Z,2.28
2023-03-26T13:26:11.878Z,2.33
2023-03-26T13:29:02.023Z,2.63
2023-03-26T13:31:32.991Z,2.60
2023-03-26T13:34:28.544Z,3.17
2023-03-26T13:37:01.113Z,1.70
2023-03-26T13:40:06.750Z,2.33
2023-03-26T13:43:05.637Z,2.17
2023-03-26T13:45:54.050Z,1.95
2023-03-26T13:48:28.232Z,2.00
2023-03-26T13:51:03.677Z,2.28
2023-03-26T13:53:55.803Z,2.40
2023-03-26T13:56:30.725Z,2.10
2023-03-26T13:59:03.021Z,3.50
2023-03-26T14:01:38.915Z,2.88
2023-03-26T14:04:28.578Z,2.40
2023-03-26T14:07:09.605Z,2.20
2023-03-26T14:09:48.077Z,2.30
2023-03-26T14:12:27.627Z,2.05
2023-03-26T14:15:16.044Z,1.73
2023-03-26T14:17:55.347Z,2.03
2023-03-26T14:20:39.968Z,1.88
2023-03-26T14:23:11.665Z,2.60
2023-03-26T14:25:47.200Z,2.00
2023-03-26T14:28:38.502Z,1.75
2023-03-26T14:31:14.171Z,1.90
2023-03-26T14:34:05.721Z,1.70
2023-03-26T14:37:27.973Z,1.58
2023-03-26T14:40:22.722Z,1.27
2023-03-26T14:43:16.361Z,1.48
2023-03-26T14:45:59.324Z,1.38
2023-03-26T14:49:02.789Z,2.92
2023-03-26T14:51:48.907Z,1.70
2023-03-26T14:54:22.511Z,1.23
2023-03-26T14:57:06.881Z,1.90
2023-03-26T15:00:01.236Z,1.33
2023-03-26T15:02:46.302Z,1.77
2023-03-26T15:05:50.328Z,1.58
2023-03-26T15:08:58.981Z,1.33
2023-03-26T15:12:13.168Z,1.75
2023-03-26T15:15:17.282Z,1.38
2023-03-26T15:18:21.098Z,1.25
2023-03-26T15:21:18.837Z,1.10
2023-03-26T15:24:03.706Z,1.30
2023-03-26T15:27:24.407Z,1.90
2023-03-26T15:30:03.108Z,2.00
2023-03-26T15:32:41.814Z,1.60
2023-03-26T15:35:57.504Z,1.50
2023-03-26T15:38:42.246Z,1.42
2023-03-26T15:41:25.230Z,1.80
2023-03-26T15:44:22.943Z,1.10
2023-03-26T15:47:26.528Z,1.23
2023-03-26T15:50:31.915Z,2.40
2023-03-26T15:53:21.700Z,1.25
2023-03-26T15:56:17.138Z,1.50
2023-03-26T15:59:26.389Z,1.45
2023-03-26T16:01:55.726Z,1.98
2023-03-26T16:04:56.124Z,2.95
2023-03-26T16:07:59.319Z,1.25
2023-03-26T16:10:29.837Z,1.08
2023-03-26T16:13:22.045Z,1.23
2023-03-26T16:16:04.043Z,1.52
2023-03-26T16:18:35.028Z,2.35
2023-03-26T16:21:32.048Z,1.25
2023-03-26T16:24:02.426Z,1.08
2023-03-26T16:26:44.027Z,1.38
2023-03-26T16:29:13.631Z,0.90
2023-03-26T16:32:25.357Z,1.08
2023-03-26T16:35:15.113Z,1.48
2023-03-26T16:37:42.938Z,1.50
2023-03-26T16:40:18.626Z,2.40
2023-03-26T16:42:54.346Z,1.38
2023-03-26T16:45:57.956Z,2.03
2023-03-26T16:49:03.616Z,1.25
2023-03-26T16:51:52.935Z,2.72
2023-03-26T16:54:49.422Z,2.13
2023-03-26T16:57:34.082Z,2.08
2023-03-26T17:00:10.644Z,2.28
2023-03-26T17:03:00.943Z,2.30
2023-03-26T17:05:37.454Z,2.72
2023-03-26T17:08:42.926Z,2.05
2023-03-26T17:11:21.228Z,2.20
2023-03-26T17:14:00.060Z,1.50
2023-03-26T17:16:46.201Z,1.60
2023-03-26T17:19:35.455Z,2.08
2023-03-26T17:22:01.863Z,1.65
2023-03-26T17:24:46.859Z,1.77
2023-03-26T17:27:36.585Z,1.98
2023-03-26T17:30:27.865Z,1.77
2023-03-26T17:32:57.066Z,1.45
2023-03-26T17:35:42.252Z,1.35
2023-03-26T17:38:18.074Z,1.75
2023-03-26T17:40:49.303Z,1.60
2023-03-26T17:43:44.176Z,1.55
2023-03-26T17:46:25.641Z,1.63
2023-03-26T17:49:26.895Z,2.25
2023-03-26T17:52:17.992Z,1.97
2023-03-26T17:54:47.223Z,2.10
2023-03-26T17:57:36.215Z,1.98
2023-03-26T18:00:03.567Z,2.85
2023-03-26T18:02:43.108Z,2.10
2023-03-26T18:05:13.192Z,2.58
2023-03-26T18:08:17.001Z,2.30
2023-03-26T18:11:21.846Z,1.63
2023-03-26T18:14:07.782Z,1.25
2023-03-26T18:16:41.720Z,1.50
2023-03-26T18:19:13.450Z,1.30
2023-03-26T18:24:11.924Z,1.30
2023-03-26T18:26:42.269Z,4.72
2023-03-26T18:29:21.409Z,2.00
2023-03-26T18:31:52.473Z,2.00
2023-03-26T18:34:19.263Z,1.75
2023-03-26T18:36:51.217Z,1.88
2023-03-26T18:39:18.595Z,2.10
2023-03-26T18:41:45.332Z,1.20
2023-03-26T18:44:17.551Z,1.92
2023-03-26T18:46:45.181Z,1.90
2023-03-26T18:49:16.651Z,1.52
2023-03-26T18:51:56.274Z,1.65
2023-03-26T18:54:25.071Z,1.88
2023-03-26T18:56:51.965Z,1.60
2023-03-26T18:59:30.032Z,1.63
2023-03-26T19:01:57.687Z,2.03
2023-03-26T19:04:30.210Z,2.60
2023-03-26T19:06:57.173Z,2.28
2023-03-26T19:09:32.199Z,2.38
2023-03-26T19:12:07.386Z,2.17
2023-03-26T19:14:34.235Z,2.08
2023-03-26T19:17:06.162Z,1.80
2023-03-26T19:19:36.288Z,2.58
2023-03-26T19:22:05.531Z,1.85
2023-03-26T19:24:32.160Z,1.85
2023-03-26T19:26:59.327Z,2.60
2023-03-26T19:29:32.789Z,2.10
2023-03-26T19:32:18.338Z,2.92
2023-03-26T19:34:46.798Z,1.75
2023-03-26T19:37:32.058Z,2.10
2023-03-26T19:40:21.697Z,2.55
2023-03-26T19:42:48.855Z,1.55
2023-03-26T19:45:19.330Z,2.03
2023-03-26T19:47:56.932Z,2.25
2023-03-26T19:50:33.163Z,1.70
2023-03-26T19:53:16.390Z,2.10
2023-03-26T19:55:53.932Z,1.42
2023-03-26T19:58:20.424Z,1.63
2023-03-26T20:00:46.974Z,1.73
2023-03-26T20:03:14.870Z,1.48
2023-03-26T20:05:41.500Z,1.20
2023-03-26T20:08:18.861Z,1.25
2023-03-26T20:10:45.431Z,1.60
2023-03-26T20:13:14.625Z,1.85
2023-03-26T20:15:43.133Z,1.77
2023-03-26T20:18:09.819Z,1.52
2023-03-26T20:20:36.387Z,1.83
2023-03-26T20:23:02.872Z,2.08
2023-03-26T20:25:33.670Z,2.08
2023-03-26T20:28:02.013Z,1.97
2023-03-26T20:30:37.592Z,2.42
2023-03-26T20:33:12.004Z,1.60
2023-03-26T20:35:40.452Z,2.72
2023-03-26T20:38:06.955Z,1.45
2023-03-26T20:40:33.467Z,1.67
2023-03-26T20:42:59.899Z,1.73
2023-03-26T20:45:26.409Z,1.60
2023-03-26T20:47:52.934Z,1.92
2023-03-26T20:50:21.880Z,1.65
2023-03-26T20:52:49.742Z,1.90
2023-03-26T20:55:18.495Z,1.33
2023-03-26T20:57:45.022Z,1.40
2023-03-26T21:00:13.832Z,1.90
2023-03-26T21:02:42.011Z,1.45
2023-03-26T21:05:11.034Z,1.88
2023-03-26T21:07:37.665Z,1.58
2023-03-26T21:10:04.674Z,1.70
2023-03-26T21:12:34.744Z,1.70
2023-03-26T21:15:01.735Z,1.77
2023-03-26T21:17:31.935Z,2.60
2023-03-26T21:19:58.642Z,1.98
2023-03-26T21:22:39.562Z,1.30
2023-03-26T21:25:21.056Z,1.07
2023-03-26T21:28:14.049Z,1.38
2023-03-26T21:30:40.793Z,1.75
2023-03-26T21:33:07.403Z,2.20
2023-03-26T21:35:34.381Z,1.77
2023-03-26T21:38:03.736Z,2.10
2023-03-26T21:40:30.488Z,1.40
2023-03-26T21:42:57.223Z,1.63
2023-03-26T21:45:24.190Z,1.20
2023-03-26T21:47:51.127Z,1.05
2023-03-26T21:50:20.309Z,1.60
2023-03-26T21:52:47.195Z,1.60
2023-03-26T21:55:15.347Z,1.55
2023-03-26T21:57:47.693Z,1.10
2023-03-26T22:00:17.412Z,1.45
2023-03-26T22:03:02.367Z,1.40
2023-03-26T22:05:34.973Z,1.33
2023-03-26T22:08:04.062Z,1.30
2023-03-26T22:10:31.149Z,2.28
2023-03-26T22:12:58.523Z,2.08
2023-03-26T22:15:25.748Z,1.48
2023-03-26T22:17:52.317Z,1.60
2023-03-26T22:20:19.747Z,3.08
2023-03-26T22:22:46.242Z,1.95
2023-03-26T22:25:12.696Z,2.22
2023-03-26T22:27:44.926Z,2.70
2023-03-26T22:30:12.718Z,1.90
2023-03-26T22:32:39.435Z,3.13
2023-03-26T22:35:06.536Z,1.92
2023-03-26T22:37:33.651Z,1.50
2023-03-26T22:40:00.128Z,2.15
2023-03-26T22:42:26.850Z,1.77
2023-03-26T22:44:53.312Z,1.90
2023-03-26T22:47:19.793Z,2.45
2023-03-26T22:49:46.260Z,2.35
2023-03-26T22:52:12.722Z,1.95
2023-03-26T22:54:39.228Z,1.60
2023-03-26T22:57:05.759Z,1.55
2023-03-26T22:59:32.292Z,2.42
2023-03-26T23:01:58.792Z,2.10
2023-03-26T23:04:31.348Z,2.05
2023-03-26T23:06:58.865Z,1.67
2023-03-26T23:09:25.456Z,1.70
2023-03-26T23:11:51.932Z,1.80
2023-03-26T23:14:18.459Z,3.25
2023-03-26T23:16:44.965Z,2.42
2023-03-26T23:19:11.718Z,1.83
2023-03-26T23:21:38.309Z,2.25
2023-03-26T23:24:05.177Z,1.98
2023-03-26T23:26:37.742Z,2.60
2023-03-26T23:29:10.801Z,2.00
2023-03-26T23:31:37.425Z,1.30
2023-03-26T23:34:03.935Z,2.15
2023-03-26T23:36:30.417Z,2.42
2023-03-26T23:38:57.046Z,2.75
2023-03-26T23:41:23.537Z,1.83
2023-03-26T23:43:54.662Z,2.60
2023-03-26T23:46:24.525Z,2.78
2023-03-26T23:48:51.858Z,1.60
2023-03-26T23:51:19.162Z,1.95
2023-03-26T23:53:46.653Z,1.55
2023-03-26T23:56:13.643Z,1.40
2023-03-26T23:58:40.111Z,1.30
